Accueil
METAR-TAF:

METAR-TAF

Aéroports :

Aérodrome de Logrogne

Logroño, Espagne

latitude: 42-27N, longitude: 002-20W, altitude: 353 m

Observation

Le bulletin a été fait il y a 35 minutes, à 15:00 UTC
Vent 9 kt de ouest, variant entre ouest/sud-ouest et ouest/nord-ouest
Température 9°C
Humidité 46%
Pression 1028 hPa
Visibilité 10 km ou plus
pas de nuages en-dessous de 1500 mètres et pas de cumulonimbus.

METAR: LELO 221500Z AUTO 27009KT 240V300 CAVOK 09/M02 Q1028

Heure: 16:35 (15:35 UTC)

Prévision

Le bulletin a été fait il y a 1 heure et 35 minutes, à 14:00 UTC
Prévision valable du 22 à 15 UTC au 23 à 15 UTC
Vent 10 kt de ouest
Visibilité 10 km ou plus
pas de nuages en-dessous de 1500 mètres et pas de cumulonimbus.
Evoluant progressivement
du 23 à 03 UTC au 23 à 05 UTC
Vent 6 kt de est

TAF: LELO 221400Z 2215/2315 28010KT CAVOK TX09/2315Z TNM03/2307Z BECMG 2303/2305 09006KT

Observations et prévisions météorologiques de plus de 4000 aéroports (messages METAR et TAF).

Les stations disponibles sont représentées par des disques jaunes et rouges sur la carte.

Passer la souris dessus pour voir le nom de la station.

Cliquer dessus pour voir les observations et prévisions météorologiques.

Pour changer de carte: cliquez sur les boutons verts avec une croix noire pour zoomer, sur le bouton vert avec un tiret pour effectuer un zoom arrière, ou sur les flèches vertes pour les cartes adjacentes.


METAR-TAF: